createdAt,value
2023-04-01T00:01:16.200Z,6.72
2023-04-01T00:03:45.061Z,6.73
2023-04-01T00:06:16.293Z,6.72
2023-04-01T00:08:45.407Z,6.72
2023-04-01T00:11:13.960Z,6.72
2023-04-01T00:13:43.754Z,6.72
2023-04-01T00:16:21.036Z,6.70
2023-04-01T00:18:51.156Z,6.69
2023-04-01T00:21:19.669Z,6.68
2023-04-01T00:23:47.967Z,6.67
2023-04-01T00:26:20.033Z,6.68
2023-04-01T00:28:50.193Z,6.68
2023-04-01T00:31:18.458Z,6.67
2023-04-01T00:33:46.851Z,6.66
2023-04-01T00:36:17.373Z,6.66
2023-04-01T00:38:46.990Z,6.65
2023-04-01T00:41:17.073Z,6.64
2023-04-01T00:43:47.117Z,6.63
2023-04-01T00:46:17.098Z,6.63
2023-04-01T00:48:49.379Z,6.61
2023-04-01T00:51:20.869Z,6.60
2023-04-01T00:53:52.092Z,6.59
2023-04-01T00:56:24.321Z,6.55
2023-04-01T00:58:57.923Z,6.53
2023-04-01T01:01:28.357Z,6.53
2023-04-01T01:03:56.679Z,6.53
2023-04-01T01:06:40.150Z,6.52
2023-04-01T01:09:21.898Z,6.53
2023-04-01T01:11:56.933Z,6.50
2023-04-01T01:14:36.471Z,6.50
2023-04-01T01:17:11.912Z,6.47
2023-04-01T01:19:57.940Z,6.46
2023-04-01T01:22:41.664Z,6.47
2023-04-01T01:25:25.589Z,6.45
2023-04-01T01:28:04.409Z,6.44
2023-04-01T01:30:44.322Z,6.45
2023-04-01T01:33:26.569Z,6.42
2023-04-01T01:35:58.973Z,6.42
2023-04-01T01:38:31.719Z,6.41
2023-04-01T01:41:04.902Z,6.38
2023-04-01T01:43:38.003Z,6.36
2023-04-01T01:46:10.768Z,6.35
2023-04-01T01:48:41.093Z,6.34
2023-04-01T01:51:10.805Z,6.34
2023-04-01T01:53:39.388Z,6.35
2023-04-01T01:56:09.086Z,6.34
2023-04-01T01:58:44.849Z,6.34
2023-04-01T02:01:19.690Z,6.34
2023-04-01T02:03:48.973Z,6.32
2023-04-01T02:06:23.396Z,6.31
2023-04-01T02:08:56.606Z,6.33
2023-04-01T02:11:29.669Z,6.34
2023-04-01T02:14:02.365Z,6.34
2023-04-01T02:16:36.055Z,6.34
2023-04-01T02:19:08.396Z,6.33
2023-04-01T02:21:40.897Z,6.32
2023-04-01T02:24:15.008Z,6.32
2023-04-01T02:26:43.904Z,6.33
2023-04-01T02:29:14.644Z,6.33
2023-04-01T02:31:44.796Z,6.33
2023-04-01T02:34:14.062Z,6.35
2023-04-01T02:36:44.587Z,6.33
2023-04-01T02:39:15.216Z,6.33
2023-04-01T02:41:44.624Z,6.28
2023-04-01T02:44:14.659Z,6.28
2023-04-01T02:46:43.272Z,6.27
2023-04-01T02:49:11.492Z,6.28
2023-04-01T02:51:39.770Z,6.28
2023-04-01T02:54:09.995Z,6.27
2023-04-01T02:56:38.480Z,6.28
2023-04-01T02:59:06.741Z,6.27
2023-04-01T03:01:35.092Z,6.25
2023-04-01T03:04:03.401Z,6.25
2023-04-01T03:06:31.986Z,6.24
2023-04-01T03:09:00.155Z,6.23
2023-04-01T03:11:29.877Z,6.21
2023-04-01T03:13:58.083Z,6.20
2023-04-01T03:16:28.153Z,6.19
2023-04-01T03:19:00.993Z,6.19
2023-04-01T03:21:31.429Z,6.18
2023-04-01T03:24:00.061Z,6.19
2023-04-01T03:26:31.500Z,6.19
2023-04-01T03:29:00.287Z,6.19
2023-04-01T03:31:28.688Z,6.21
2023-04-01T03:33:58.671Z,6.20
2023-04-01T03:36:26.958Z,6.21
2023-04-01T03:38:55.391Z,6.20
2023-04-01T03:41:35.096Z,6.19
2023-04-01T03:44:03.230Z,6.20
2023-04-01T03:46:31.402Z,6.20
2023-04-01T03:48:59.680Z,6.21
2023-04-01T03:51:27.752Z,6.20
2023-04-01T03:53:56.181Z,6.21
2023-04-01T03:56:24.268Z,6.20
2023-04-01T03:58:53.880Z,6.21
2023-04-01T04:01:23.812Z,6.21
2023-04-01T04:03:56.467Z,6.21
2023-04-01T04:06:25.880Z,6.19
2023-04-01T04:08:54.581Z,6.17
2023-04-01T04:11:23.858Z,6.17
2023-04-01T04:13:56.612Z,6.16
2023-04-01T04:16:25.434Z,6.17
2023-04-01T04:18:58.996Z,6.14
2023-04-01T04:21:27.218Z,6.13
2023-04-01T04:23:55.412Z,6.12
2023-04-01T04:26:24.030Z,6.11
2023-04-01T04:28:59.847Z,6.04
2023-04-01T04:31:28.917Z,5.93
2023-04-01T04:34:01.120Z,5.78
2023-04-01T04:36:29.594Z,5.67
2023-04-01T04:38:59.072Z,5.64
2023-04-01T04:41:27.289Z,5.62
2023-04-01T04:43:58.206Z,5.61
2023-04-01T04:46:28.104Z,5.58
2023-04-01T04:49:03.754Z,5.54
2023-04-01T04:51:34.953Z,5.53
2023-04-01T04:54:03.382Z,5.54
2023-04-01T04:56:44.883Z,5.54
2023-04-01T04:59:13.539Z,5.59
2023-04-01T05:01:49.370Z,5.56
2023-04-01T05:04:17.883Z,5.53
2023-04-01T05:06:46.703Z,5.53
2023-04-01T05:09:15.976Z,5.50
2023-04-01T05:11:44.126Z,5.50
2023-04-01T05:14:15.601Z,5.45
2023-04-01T05:16:46.812Z,5.49
2023-04-01T05:19:16.903Z,5.43
2023-04-01T05:21:45.068Z,5.36
2023-04-01T05:24:13.388Z,5.31
2023-04-01T05:26:41.963Z,5.31
2023-04-01T05:29:10.155Z,5.31
2023-04-01T05:31:38.458Z,5.23
2023-04-01T05:34:07.541Z,5.22
2023-04-01T05:36:37.082Z,5.16
2023-04-01T05:39:05.539Z,5.19
2023-04-01T05:41:33.827Z,5.19
2023-04-01T05:44:02.315Z,5.14
2023-04-01T05:46:48.800Z,5.15
2023-04-01T05:49:21.901Z,5.13
2023-04-01T05:51:53.440Z,5.09
2023-04-01T05:54:22.237Z,5.08
2023-04-01T05:56:50.443Z,5.07
2023-04-01T05:59:19.459Z,5.07
2023-04-01T06:01:47.870Z,5.05
2023-04-01T06:04:18.478Z,5.03
2023-04-01T06:06:47.901Z,5.03
2023-04-01T06:09:20.549Z,5.03
2023-04-01T06:12:12.688Z,5.00
2023-04-01T06:14:58.298Z,5.02
2023-04-01T06:17:36.680Z,5.00
2023-04-01T06:20:14.307Z,4.94
2023-04-01T06:22:56.913Z,4.93
2023-04-01T06:25:37.311Z,4.91
2023-04-01T06:28:33.579Z,4.91
2023-04-01T06:31:09.297Z,4.96
2023-04-01T06:33:58.308Z,4.91
2023-04-01T06:36:45.406Z,4.97
2023-04-01T06:39:31.011Z,5.00
2023-04-01T06:42:22.300Z,5.07
2023-04-01T06:45:02.902Z,5.08
2023-04-01T06:48:04.866Z,5.07
2023-04-01T06:51:02.101Z,5.07
2023-04-01T06:53:56.403Z,5.03
2023-04-01T06:56:48.370Z,5.00
2023-04-01T06:59:29.005Z,4.97
2023-04-01T07:01:59.264Z,4.97
2023-04-01T07:04:32.740Z,4.97
2023-04-01T07:07:03.903Z,5.02
2023-04-01T07:09:37.391Z,5.06
2023-04-01T07:12:42.188Z,5.12
2023-04-01T07:15:35.558Z,5.16
2023-04-01T07:18:11.790Z,5.15
2023-04-01T07:20:40.708Z,5.09
2023-04-01T07:23:17.865Z,5.14
2023-04-01T07:26:16.005Z,5.10
2023-04-01T07:29:02.965Z,5.10
2023-04-01T07:31:57.634Z,5.18
2023-04-01T07:34:28.244Z,5.19
2023-04-01T07:37:03.360Z,5.16
2023-04-01T07:39:40.600Z,5.14
2023-04-01T07:42:26.270Z,5.06
2023-04-01T07:45:03.860Z,5.01
2023-04-01T07:47:49.155Z,5.02
2023-04-01T07:50:25.129Z,5.00
2023-04-01T07:53:05.668Z,5.06
2023-04-01T07:55:41.435Z,5.11
2023-04-01T07:58:19.581Z,5.07
2023-04-01T08:00:54.058Z,5.09
2023-04-01T08:03:44.642Z,5.07
2023-04-01T08:06:18.976Z,5.06
2023-04-01T08:08:58.763Z,5.01
2023-04-01T08:12:02.910Z,4.97
2023-04-01T08:14:58.138Z,4.95
2023-04-01T08:18:02.384Z,4.87
2023-04-01T08:20:39.460Z,4.97
2023-04-01T08:23:14.925Z,4.98
2023-04-01T08:25:50.756Z,4.96
2023-04-01T08:28:25.211Z,4.98
2023-04-01T08:30:59.442Z,5.03
2023-04-01T08:33:29.852Z,5.06
2023-04-01T08:36:12.410Z,5.05
2023-04-01T08:38:46.911Z,5.07
2023-04-01T08:41:36.127Z,5.04
2023-04-01T08:44:37.959Z,4.97
2023-04-01T08:47:21.919Z,4.90
2023-04-01T08:50:08.342Z,4.89
2023-04-01T08:53:05.648Z,4.91
2023-04-01T08:55:40.812Z,4.95
2023-04-01T08:58:35.297Z,4.93
2023-04-01T09:01:35.183Z,4.92
2023-04-01T09:04:27.266Z,4.92
2023-04-01T09:07:12.877Z,4.86
2023-04-01T09:10:09.861Z,4.89
2023-04-01T09:12:57.387Z,4.87
2023-04-01T09:15:44.249Z,4.95
2023-04-01T09:18:38.759Z,5.00
2023-04-01T09:21:21.815Z,5.04
2023-04-01T09:24:14.493Z,5.02
2023-04-01T09:27:01.163Z,4.99
2023-04-01T09:29:50.446Z,4.98
2023-04-01T09:32:42.072Z,4.96
2023-04-01T09:35:24.942Z,4.90
2023-04-01T09:38:11.464Z,4.86
2023-04-01T09:40:45.357Z,4.89
2023-04-01T09:43:26.989Z,4.87
2023-04-01T09:46:09.567Z,4.92
2023-04-01T09:48:55.832Z,4.96
2023-04-01T09:51:34.437Z,5.00
2023-04-01T09:54:15.894Z,5.13
2023-04-01T09:57:17.559Z,5.28
2023-04-01T10:00:28.938Z,5.22
2023-04-01T10:03:41.578Z,5.25
2023-04-01T10:06:43.649Z,5.31
2023-04-01T10:09:38.950Z,5.32
2023-04-01T10:12:36.620Z,5.32
2023-04-01T10:15:40.980Z,5.26
2023-04-01T10:18:34.818Z,5.33
2023-04-01T10:21:22.237Z,5.24
2023-04-01T10:24:10.488Z,5.23
2023-04-01T10:27:15.000Z,5.28
2023-04-01T10:30:31.526Z,5.31
2023-04-01T10:33:33.797Z,5.35
2023-04-01T10:36:24.763Z,5.38
2023-04-01T10:39:23.067Z,5.37
2023-04-01T10:42:18.897Z,5.44
2023-04-01T10:45:41.593Z,5.50
2023-04-01T10:48:20.062Z,5.55
2023-04-01T10:51:14.658Z,5.63
2023-04-01T10:54:01.357Z,5.63
2023-04-01T10:56:52.419Z,5.63
2023-04-01T11:00:06.113Z,5.65
2023-04-01T11:03:27.207Z,5.70
2023-04-01T11:06:57.936Z,5.68
2023-04-01T11:09:58.011Z,5.66
2023-04-01T11:12:57.036Z,5.71
2023-04-01T11:15:59.401Z,5.82
2023-04-01T11:18:58.451Z,5.94
2023-04-01T11:22:01.827Z,5.99
2023-04-01T11:25:11.596Z,6.01
2023-04-01T11:28:09.528Z,6.02
2023-04-01T11:30:56.646Z,6.01
2023-04-01T11:33:30.779Z,6.11
2023-04-01T11:36:22.290Z,6.12
2023-04-01T11:39:02.606Z,6.08
2023-04-01T11:41:55.612Z,5.95
2023-04-01T11:44:54.050Z,5.99
2023-04-01T11:47:54.449Z,5.98
2023-04-01T11:50:30.819Z,5.98
2023-04-01T11:53:19.400Z,5.99
2023-04-01T11:55:58.580Z,5.93
2023-04-01T11:58:39.057Z,5.96
2023-04-01T12:01:22.528Z,6.07
2023-04-01T12:04:21.558Z,6.43
2023-04-01T12:06:59.040Z,6.80
2023-04-01T12:09:38.142Z,6.93
2023-04-01T12:12:18.259Z,7.10
2023-04-01T12:14:58.161Z,7.28
2023-04-01T12:17:37.533Z,7.30
2023-04-01T12:20:27.770Z,7.33
2023-04-01T12:23:06.761Z,7.45
2023-04-01T12:25:54.156Z,7.43
2023-04-01T12:28:27.708Z,7.46
2023-04-01T12:31:04.628Z,7.58
2023-04-01T12:33:58.128Z,7.67
2023-04-01T12:36:42.850Z,7.54
2023-04-01T12:39:32.649Z,7.36
2023-04-01T12:42:09.618Z,7.31
2023-04-01T12:44:50.760Z,7.31
2023-04-01T12:47:32.104Z,7.33
2023-04-01T12:50:25.890Z,7.48
2023-04-01T12:53:12.441Z,7.64
2023-04-01T12:55:42.260Z,7.68
2023-04-01T12:58:47.485Z,7.67
2023-04-01T13:01:28.195Z,7.51
2023-04-01T13:04:16.745Z,7.34
2023-04-01T13:06:56.837Z,7.21
2023-04-01T13:09:39.459Z,7.10
2023-04-01T13:12:26.230Z,7.14
2023-04-01T13:15:20.484Z,7.17
2023-04-01T13:17:55.660Z,7.27
2023-04-01T13:20:36.638Z,7.40
2023-04-01T13:23:15.494Z,7.49
2023-04-01T13:25:59.261Z,7.56
2023-04-01T13:28:41.837Z,7.72
2023-04-01T13:31:22.975Z,7.79
2023-04-01T13:34:02.470Z,7.80
2023-04-01T13:36:39.161Z,7.70
2023-04-01T13:39:22.684Z,7.60
2023-04-01T13:42:09.575Z,7.68
2023-04-01T13:44:42.470Z,7.68
2023-04-01T13:47:26.154Z,7.71
2023-04-01T13:50:24.789Z,7.78
2023-04-01T13:53:21.047Z,7.99
2023-04-01T13:55:58.220Z,8.85
2023-04-01T13:58:51.945Z,9.33
2023-04-01T14:01:32.357Z,9.43
2023-04-01T14:04:30.746Z,9.53
2023-04-01T14:07:17.914Z,9.06
2023-04-01T14:10:04.132Z,8.62
2023-04-01T14:12:38.608Z,8.20
2023-04-01T14:15:24.827Z,7.91
2023-04-01T14:18:17.093Z,7.68
2023-04-01T14:20:53.903Z,7.51
2023-04-01T14:23:44.966Z,7.42
2023-04-01T14:26:27.782Z,7.40
2023-04-01T14:29:05.015Z,7.42
2023-04-01T14:31:45.735Z,7.45
2023-04-01T14:34:27.385Z,7.46
2023-04-01T14:37:13.865Z,7.44
2023-04-01T14:40:19.436Z,7.39
2023-04-01T14:43:05.676Z,7.36
2023-04-01T14:45:48.441Z,7.30
2023-04-01T14:48:27.103Z,7.23
2023-04-01T14:50:57.976Z,7.20
2023-04-01T14:53:30.746Z,7.22
2023-04-01T14:56:01.113Z,7.25
2023-04-01T14:58:44.620Z,7.27
2023-04-01T15:01:27.702Z,7.29
2023-04-01T15:04:06.654Z,7.28
2023-04-01T15:06:47.986Z,7.23
2023-04-01T15:09:24.535Z,7.21
2023-04-01T15:12:06.034Z,7.16
2023-04-01T15:14:45.566Z,7.19
2023-04-01T15:17:27.411Z,7.15
2023-04-01T15:20:12.994Z,7.15
2023-04-01T15:22:56.482Z,7.14
2023-04-01T15:25:38.375Z,7.07
2023-04-01T15:28:18.897Z,6.97
2023-04-01T15:30:56.484Z,6.88
2023-04-01T15:33:45.371Z,6.78
2023-04-01T15:36:28.326Z,6.72
2023-04-01T15:39:05.390Z,6.67
2023-04-01T15:41:45.479Z,6.65
2023-04-01T15:44:43.490Z,6.61
2023-04-01T15:47:32.027Z,6.58
2023-04-01T15:50:26.963Z,6.60
2023-04-01T15:53:10.181Z,6.66
2023-04-01T15:55:45.332Z,6.70
2023-04-01T15:58:31.331Z,6.71
2023-04-01T16:01:13.718Z,6.66
2023-04-01T16:03:52.325Z,6.62
2023-04-01T16:06:35.874Z,6.61
2023-04-01T16:09:22.007Z,6.58
2023-04-01T16:12:00.268Z,6.57
2023-04-01T16:14:39.194Z,6.57
2023-04-01T16:17:26.357Z,6.52
2023-04-01T16:19:58.140Z,6.47
2023-04-01T16:22:33.772Z,6.46
2023-04-01T16:25:22.526Z,6.43
2023-04-01T16:27:56.710Z,6.41
2023-04-01T16:30:35.917Z,6.43
2023-04-01T16:33:07.738Z,6.43
2023-04-01T16:35:45.691Z,6.42
2023-04-01T16:38:21.610Z,6.42
2023-04-01T16:41:03.223Z,6.44
2023-04-01T16:43:40.399Z,6.46
2023-04-01T16:46:32.816Z,6.51
2023-04-01T16:49:05.131Z,6.59
2023-04-01T16:51:41.813Z,6.64
2023-04-01T16:54:19.492Z,6.64
2023-04-01T16:56:56.015Z,6.63
2023-04-01T16:59:29.381Z,6.63
2023-04-01T17:02:05.526Z,6.66
2023-04-01T17:04:40.129Z,6.67
2023-04-01T17:07:22.692Z,6.65
2023-04-01T17:10:21.605Z,6.57
2023-04-01T17:13:06.096Z,6.50
2023-04-01T17:15:45.993Z,6.43
2023-04-01T17:18:23.529Z,6.41
2023-04-01T17:20:57.375Z,6.38
2023-04-01T17:23:33.083Z,6.38
2023-04-01T17:26:10.688Z,6.34
2023-04-01T17:28:50.558Z,6.31
2023-04-01T17:31:28.891Z,6.33
2023-04-01T17:34:11.872Z,6.28
2023-04-01T17:36:54.453Z,6.28
2023-04-01T17:39:34.953Z,6.24
2023-04-01T17:42:11.317Z,6.23
2023-04-01T17:44:51.663Z,6.23
2023-04-01T17:47:38.608Z,6.24
2023-04-01T17:50:23.052Z,6.21
2023-04-01T17:53:06.166Z,6.14
2023-04-01T17:55:47.476Z,6.00
2023-04-01T17:58:20.633Z,5.89
2023-04-01T18:01:04.770Z,5.89
2023-04-01T18:03:42.097Z,5.87
2023-04-01T18:06:17.280Z,5.91
2023-04-01T18:09:00.088Z,5.91
2023-04-01T18:11:41.355Z,5.91
2023-04-01T18:14:26.355Z,5.90
2023-04-01T18:17:12.032Z,5.87
2023-04-01T18:19:50.976Z,5.86
2023-04-01T18:22:23.148Z,5.83
2023-04-01T18:25:00.640Z,5.84
2023-04-01T18:27:33.929Z,5.82
2023-04-01T18:30:09.785Z,5.83
2023-04-01T18:32:48.002Z,5.82
2023-04-01T18:35:24.658Z,5.78
2023-04-01T18:37:58.271Z,5.72
2023-04-01T18:40:33.980Z,5.71
2023-04-01T18:43:14.262Z,5.74
2023-04-01T18:45:48.095Z,5.72
2023-04-01T18:48:44.811Z,5.73
2023-04-01T18:51:16.979Z,5.70
2023-04-01T18:53:51.189Z,5.70
2023-04-01T18:56:29.307Z,5.70
2023-04-01T18:59:04.850Z,5.67
2023-04-01T19:01:42.046Z,5.63
2023-04-01T19:04:23.008Z,5.63
2023-04-01T19:06:53.735Z,5.60
2023-04-01T19:09:25.742Z,5.56
2023-04-01T19:12:12.204Z,5.54
2023-04-01T19:14:53.987Z,5.51
2023-04-01T19:17:32.269Z,5.46
2023-04-01T19:20:12.664Z,5.42
2023-04-01T19:22:57.522Z,5.42
2023-04-01T19:25:37.801Z,5.43
2023-04-01T19:28:22.855Z,5.43
2023-04-01T19:30:58.511Z,5.47
2023-04-01T19:33:42.380Z,5.52
2023-04-01T19:36:22.637Z,5.52
2023-04-01T19:38:57.942Z,5.48
2023-04-01T19:41:37.972Z,5.47
2023-04-01T19:44:21.869Z,5.47
2023-04-01T19:46:54.026Z,5.53
2023-04-01T19:49:36.998Z,5.52
2023-04-01T19:52:16.262Z,5.53
2023-04-01T19:54:52.698Z,5.52
2023-04-01T19:57:30.878Z,5.53
2023-04-01T20:00:05.423Z,5.53
2023-04-01T20:02:58.669Z,5.51
2023-04-01T20:05:36.259Z,5.51
2023-04-01T20:08:13.557Z,5.49
2023-04-01T20:10:48.693Z,5.48
2023-04-01T20:13:28.247Z,5.52
2023-04-01T20:16:04.732Z,5.52
2023-04-01T20:18:41.662Z,5.53
2023-04-01T20:21:31.024Z,5.53
2023-04-01T20:24:02.861Z,5.52
2023-04-01T20:26:36.329Z,5.49
2023-04-01T20:29:25.536Z,5.48
2023-04-01T20:32:05.157Z,5.47
2023-04-01T20:34:49.561Z,5.47
2023-04-01T20:37:31.545Z,5.46
2023-04-01T20:40:25.099Z,5.45
2023-04-01T20:43:19.735Z,5.45
2023-04-01T20:45:57.318Z,5.45
2023-04-01T20:48:51.419Z,5.46
2023-04-01T20:51:25.178Z,5.51
2023-04-01T20:53:56.168Z,5.55
2023-04-01T20:56:34.995Z,5.56
2023-04-01T20:59:18.799Z,5.57
2023-04-01T21:01:53.347Z,5.58
2023-04-01T21:04:29.621Z,5.56
2023-04-01T21:07:11.739Z,5.52
2023-04-01T21:09:53.740Z,5.50
2023-04-01T21:12:33.033Z,5.47
2023-04-01T21:15:13.720Z,5.45
2023-04-01T21:17:54.883Z,5.43
2023-04-01T21:20:40.177Z,5.41
2023-04-01T21:23:23.277Z,5.39
2023-04-01T21:26:05.656Z,5.36
2023-04-01T21:28:48.400Z,5.34
2023-04-01T21:31:31.106Z,5.31
2023-04-01T21:34:12.703Z,5.28
2023-04-01T21:36:54.879Z,5.29
2023-04-01T21:39:40.138Z,5.28
2023-04-01T21:42:24.419Z,5.27
2023-04-01T21:45:09.560Z,5.26
2023-04-01T21:48:09.514Z,5.25
2023-04-01T21:50:50.363Z,5.25
2023-04-01T21:53:46.908Z,5.23
2023-04-01T21:56:52.194Z,5.20
2023-04-01T21:59:41.706Z,5.18
2023-04-01T22:02:37.021Z,5.19
2023-04-01T22:05:13.253Z,5.22
2023-04-01T22:07:48.364Z,5.23
2023-04-01T22:10:27.882Z,5.23
2023-04-01T22:13:01.540Z,5.24
2023-04-01T22:15:47.499Z,5.25
2023-04-01T22:18:24.784Z,5.27
2023-04-01T22:21:06.075Z,5.30
2023-04-01T22:23:41.865Z,5.31
2023-04-01T22:26:19.529Z,5.33
2023-04-01T22:28:56.885Z,5.36
2023-04-01T22:31:30.895Z,5.39
2023-04-01T22:34:08.662Z,5.42
2023-04-01T22:36:47.731Z,5.43
2023-04-01T22:39:31.021Z,5.41
2023-04-01T22:42:09.926Z,5.40
2023-04-01T22:44:54.287Z,5.40
2023-04-01T22:47:29.118Z,5.41
2023-04-01T22:50:05.745Z,5.39
2023-04-01T22:52:39.223Z,5.39
2023-04-01T22:55:15.105Z,5.39
2023-04-01T22:57:50.344Z,5.37
2023-04-01T23:00:22.749Z,5.35
2023-04-01T23:03:09.097Z,5.37
2023-04-01T23:05:44.913Z,5.38
2023-04-01T23:08:42.575Z,5.38
2023-04-01T23:11:16.866Z,5.36
2023-04-01T23:13:49.499Z,5.38
2023-04-01T23:16:21.006Z,5.37
2023-04-01T23:18:55.197Z,5.36
2023-04-01T23:21:33.189Z,5.35
2023-04-01T23:24:09.432Z,5.36
2023-04-01T23:26:44.620Z,5.35
2023-04-01T23:29:17.128Z,5.35
2023-04-01T23:31:46.898Z,5.33
2023-04-01T23:34:27.388Z,5.30
2023-04-01T23:37:00.407Z,5.27
2023-04-01T23:39:32.404Z,5.28
2023-04-01T23:42:04.426Z,5.28
2023-04-01T23:44:34.764Z,5.31
2023-04-01T23:47:04.885Z,5.27
2023-04-01T23:49:40.828Z,5.27
2023-04-01T23:52:16.313Z,5.25
2023-04-01T23:54:50.587Z,5.24
2023-04-01T23:57:23.149Z,5.24
